This is the latest recevied weather packets stored in our database for station/object KEFK. If no packets are shown the sender has not sent any weather packets the latest 1 day(s).
| Time | Temp. | Humidity | Pressure | Rain* | Wind** | Luminosity | Snow |
|---|---|---|---|---|---|---|---|
| 1836274577 | 8.89° C | 61% | 1023.4 hPa | - | 1.79 m/s, 310° | - | - |
| 1836274428 | 8.89° C | 61% | 1023.4 hPa | - | 1.79 m/s, 310° | - | - |
| 1836273976 | 7.78° C | 65% | 1023 hPa | - | 1.34 m/s, 320° | - | - |
| 1778057014 | 8.89° C | 87% | 1009.8 hPa | - | 1.34 m/s, 50° | - | - |
| 1778056409 | 8.89° C | 87% | 1009.8 hPa | - | 1.34 m/s, 20° | - | - |
| 1778055817 | 8.89° C | 87% | 1009.8 hPa | - | 1.34 m/s, 20° | - | - |
| 1778055206 | 8.89° C | 87% | 1009.8 hPa | - | 0 m/s | - | - |
| 1778054607 | 8.89° C | 87% | 1009.8 hPa | - | 0 m/s | - | - |
| 1778054006 | 8.89° C | 93% | 1009.8 hPa | - | 1.34 m/s, 10° | - | - |
| 1778053409 | 8.89° C | 93% | 1009.8 hPa | - | 1.34 m/s, 10° | - | - |
| 1778052808 | 8.89° C | 87% | 1009.5 hPa | - | 1.34 m/s, 360° | - | - |
| 1778052208 | 8.89° C | 87% | 1009.5 hPa | - | 1.34 m/s, 360° | - | - |
| 1778051609 | 8.89° C | 93% | 1009.8 hPa | - | 2.24 m/s, 320° | - | - |
| 1778051010 | 8.89° C | 93% | 1009.8 hPa | - | 2.24 m/s, 320° | - | - |
| 1778050405 | 10° C | 87% | 1009.8 hPa | - | 1.34 m/s, 360° | - | - |
| 1778049806 | 10° C | 87% | 1009.8 hPa | - | 1.34 m/s, 360° | - | - |
| 1778049213 | 10° C | 93% | 1009.8 hPa | - | 0 m/s | - | - |
| 1778048608 | 10° C | 93% | 1009.8 hPa | - | 0 m/s | - | - |
| 1778048007 | 10° C | 93% | 1009.5 hPa | - | 0 m/s | - | - |
| 1778047412 | 10° C | 93% | 1009.5 hPa | - | 0 m/s | - | - |
| 1778046808 | 10.56° C | 87% | 1009.5 hPa | - | 0 m/s | - | - |
| 1778046213 | 10.56° C | 87% | 1009.5 hPa | - | 0 m/s | - | - |
| 1778045606 | 10.56° C | 87% | 1009.1 hPa | - | 1.34 m/s, 280° | - | - |
| 1778045008 | 10.56° C | 87% | 1009.1 hPa | - | 1.34 m/s, 280° | - | - |
| 1778044407 | 10.56° C | 87% | 1009.1 hPa | - | 0 m/s | - | - |
* Rain since midnight (hover to see other rain measurements)
** Current wind speed in m/s (hover to see current wind gust speed)